Heppner, Oregon
Current Conditions -  °F | °C
As of 4:53 PM on Saturday 22 Nov 2014 (Local Time) from KHRI Reporting Station
Clear Clear  
Wind Chill: 39°   Ceiling: Unl
Heat Index: 47°   Visibility: 10mi
Dew Point: 37°   Wind: 22mph
Humidity: 68%   Direction: 250°WSW
Pressure: 29.93"   Gusts: 32mph
Location:  45.35°N, 119.56°W
Report Text: KHRI 230053Z AUTO 25019G28KT 10SM CLR 08/03 A2993 RMK AO2 PK WND 25029/0015 SLP135 T00830028
Loading
Personal Weather Stations






























Interactive Weather Map New forecast layout! Learn more

10-Day Weather Forecast

Advertisements
Track Severe Weather on mobile